Αρχική σελίδα
METAR-TAF:

METAR-TAF

Αεροδρόμια :

Ταράουα, Κιριμπάτι

γεωγραφικό πλάτος: 01-21N, γεωγραφικό μήκος: 172-55E, υψόμετρο: 2 μ

Παρών καιρός

Η αναφορά έγινε 33 λεπτά πριν, στις 01:00 UTC
Άνεμος 3 kt από Α/BA
Θερμοκρασία 32°C
Υγρασία 75%
Πίεση 1008 hPa
Ορατότητα 10 χλμ και άνω
Λίγα νέφη σε ύψος 1900 πόδια

METAR: NGTA 150100Z 07003KT 9999 FEW019 32/27 Q1008

Χρόνος: 15:33 (01:33 UTC)

Πρόγνωση Καιρού

Η αναφορά έγινε 2 ώρες και 20 λεπτά πριν, στις 23:13 UTC
Η πρόγνωση ισχύει από τις 15 στις 00 UTC έως τις 15 στις 24 UTC
Άνεμος 6 kt από BA
Ορατότητα 10 χλμ και άνω
Λίγα νέφη σε ύψος 1900 πόδια
Πιθανότητα 40% :
Προσωρινά
από 15 στις 06 UTC έως τις 15 στις 15 UTC
Ορατότητα: 7000 μ
Λίγα νέφη σε ύψος 1800 πόδια, Σωρειτομελανίτες.
καταιγίδα, βροχή,

TAF: NGTA 142313Z 1500/1524 05006KT 9999 FEW019 PROB40 TEMPO 1506/1515 7000 TSRA FEW018CB

Μετεωρολογικές αναφορές και προγνώσεις για περισσότερα από 4000 αεροδρόμια (δελτία METAR και TAF).

Οι διαθέσιμοι σταθμοί απεικονίζονται στο χάρτη με κίτρινες και κόκκινες κουκκίδες.

Μετακινήστε το ποντίκι πάνω από τις κουκκίδες για να δείτε το όνομα του σταθμού.

Στη συνέχεια, κάντε κλικ για να δείτε τις μετεωρολογικές αναφορές και τις προγνώσεις καιρού.

Για να αλλάξετε το χάρτη: κάντε κλικ στα πράσινα κουμπιά με τον μαύρο σταυρό για να ζουμάρετε, στο πράσινο κουμπί με την παύλα για να αφαιρέσετε το ζουμ ή στα πράσινα βέλη για να αντιπαραβάλλετε χάρτες.


METAR-TAF: